CYQL

Lethbridge County Airport

Lethbridge, Alberta, Canada
METAR CYQL 202100Z VRB04KT 60SM BKN270 01/M06 A2974 RMK CS7 SLP107
Observed Flight Rules
Jan-20 @ 21:00 UTC (25 minutes ago) Visual Flight Rules
Wind Visibility Clouds
Variable at 4 knots 60 miles
  • Broken at 27,000' AGL
Temperatures Readings
Current 1°C / 34°F
Dewpoint -6°C / 21°F
Humidity 60%
Altimeter 29.74" Hg
Pressure 1010.7 hPa
Elevation 929
METAR CYQL 202100Z VRB04KT 60SM BKN270 01/M06 A2974 RMK CS7 SLP107
Observed Flight Rules
Jan-20 @ 21:00 UTC
(25 minutes ago)
VFR
Wind Visibility
Variable at 4 knots 60 miles
Clouds
  • Broken at 27,000' AGL
Temperature Dewpoint
1°C / 34°F -6°C / 21°F
Humidity Altimeter Pressure
60% 29.74" Hg 1010.7 hPa